ムルマンスク の空港の天気 - METARとTAF

ムルマンスク空港 ( ULMM / MMK ) - ロシア ムルマンスク
飛行場実況気象(Metar)
観測時間04/26 14:00 MSK (04/26 11:00 UTC)
風向・風速南南東 2m/s
視程10km以上
天気現象弱いしゅう雨
全天の8割程度の雲 雲底高度 580m
気温6℃
湿度70%
気圧991hPa
METARULMM 261100Z 16002MPS 9999 -SHRA BKN019CB 06/01 Q0991 R13/290150 NOSIG RMK QFE737
過去の天気等 Google飛行場航空写真 Wunderground天気予報

過去48時間のMETAR

飛行場予報(TAF)
発表時間: 4/26 10:56 MSK (4/26 07:56 UTC)
予報対象時間: 26日12時 MSK ~ 27日12時 MSK
風向・風速西南西 3m/s 瞬間風速 8m/s
視程3,100m
天気現象弱いしゅう雨 もや
全天の8割程度の積乱雲 雲底高度 340m
26日12時 MSK ~ 27日4時 MSK に一時的に
風向・風速南南西 3m/s
視程300m
天気現象弱いしゅう雨雪 霧
全天の8割程度の雲 雲底高度 60m
全天の8割程度の積乱雲 雲底高度 340m
27日4時 MSK から
風向・風速北北西 3m/s 瞬間風速 8m/s
視程10km以上
全天の8割程度の雲 雲底高度 340m
27日4時 MSK ~ 27日12時 MSK に一時的に
風向・風速西北西 3m/s 瞬間風速 9m/s
視程3,100m
天気現象弱いしゅう雪雨 もや
全天の8割程度の雲 雲底高度 180m
全天の8割程度の積乱雲 雲底高度 340m
TAF ULMM 260756Z 2609/2709 25003G08MPS 3100 -SHRA BR BKN011CB
TEMPO 2609/2701 20003MPS 0300 -SHRASN FG BKN002 BKN011CB
FM270100 34003G08MPS 9999 BKN011
TEMPO 2701/2709 29003G09MPS 3100 -SHSNRA BR BKN006 BKN011CB